sensor_id;sensor_type;location;lat;lon;timestamp;pressure;altitude;pressure_sealevel;temperature;humidity
68873;BME280;55907;50.806;12.882;2023-08-08T00:01:23;972.2;;;11.9;86.9
68873;BME280;55907;50.806;12.882;2023-08-08T00:04:24;972.2;;;11.9;86.8
68873;BME280;55907;50.806;12.882;2023-08-08T00:07:26;972.2;;;11.8;86.9
68873;BME280;55907;50.806;12.882;2023-08-08T00:10:27;972.1;;;11.8;87.1
68873;BME280;55907;50.806;12.882;2023-08-08T00:13:29;972.1;;;11.8;87.3
68873;BME280;55907;50.806;12.882;2023-08-08T00:16:30;972.1;;;11.8;86.8
68873;BME280;55907;50.806;12.882;2023-08-08T00:19:32;972.1;;;11.8;86.9
68873;BME280;55907;50.806;12.882;2023-08-08T00:22:33;972.1;;;11.7;86.6
68873;BME280;55907;50.806;12.882;2023-08-08T00:25:35;972.0;;;11.7;86.5
68873;BME280;55907;50.806;12.882;2023-08-08T00:28:36;972.0;;;11.8;86.6
68873;BME280;55907;50.806;12.882;2023-08-08T00:31:37;972.0;;;11.7;86.7
68873;BME280;55907;50.806;12.882;2023-08-08T00:34:39;972.1;;;11.7;86.2
68873;BME280;55907;50.806;12.882;2023-08-08T00:37:40;972.1;;;11.7;86.2
68873;BME280;55907;50.806;12.882;2023-08-08T00:40:42;972.1;;;11.7;86.3
68873;BME280;55907;50.806;12.882;2023-08-08T00:43:43;972.1;;;11.7;86.5
68873;BME280;55907;50.806;12.882;2023-08-08T00:46:45;972.0;;;11.6;86.3
68873;BME280;55907;50.806;12.882;2023-08-08T00:49:47;972.0;;;11.6;86.6
68873;BME280;55907;50.806;12.882;2023-08-08T00:52:48;972.0;;;11.5;86.5
68873;BME280;55907;50.806;12.882;2023-08-08T00:55:49;972.0;;;11.6;86.1
68873;BME280;55907;50.806;12.882;2023-08-08T00:58:51;972.0;;;11.6;86.0
68873;BME280;55907;50.806;12.882;2023-08-08T01:01:52;972.1;;;11.6;86.0
68873;BME280;55907;50.806;12.882;2023-08-08T01:04:53;972.0;;;11.6;85.9
68873;BME280;55907;50.806;12.882;2023-08-08T01:07:59;972.0;;;11.5;86.3
68873;BME280;55907;50.806;12.882;2023-08-08T01:10:57;972.0;;;11.5;86.2
68873;BME280;55907;50.806;12.882;2023-08-08T01:13:59;972.0;;;11.5;85.9
68873;BME280;55907;50.806;12.882;2023-08-08T01:17:00;971.9;;;11.4;86.0
68873;BME280;55907;50.806;12.882;2023-08-08T01:20:02;972.0;;;11.4;85.9
68873;BME280;55907;50.806;12.882;2023-08-08T01:23:09;972.0;;;11.4;85.7
68873;BME280;55907;50.806;12.882;2023-08-08T01:26:04;971.9;;;11.4;85.6
68873;BME280;55907;50.806;12.882;2023-08-08T01:29:05;971.9;;;11.4;85.4
68873;BME280;55907;50.806;12.882;2023-08-08T01:32:07;972.0;;;11.4;85.4
68873;BME280;55907;50.806;12.882;2023-08-08T01:35:08;971.9;;;11.4;85.6
68873;BME280;55907;50.806;12.882;2023-08-08T01:38:12;972.0;;;11.4;85.9
68873;BME280;55907;50.806;12.882;2023-08-08T01:41:12;972.0;;;11.3;85.9
68873;BME280;55907;50.806;12.882;2023-08-08T01:44:13;972.0;;;11.4;85.4
68873;BME280;55907;50.806;12.882;2023-08-08T01:47:14;972.0;;;11.3;85.4
68873;BME280;55907;50.806;12.882;2023-08-08T01:50:16;972.0;;;11.3;85.7
68873;BME280;55907;50.806;12.882;2023-08-08T01:53:17;972.0;;;11.3;85.3
68873;BME280;55907;50.806;12.882;2023-08-08T01:56:18;971.9;;;11.3;85.3
68873;BME280;55907;50.806;12.882;2023-08-08T01:59:20;972.0;;;11.2;85.3
68873;BME280;55907;50.806;12.882;2023-08-08T02:02:21;971.9;;;11.2;85.2
68873;BME280;55907;50.806;12.882;2023-08-08T02:05:23;971.9;;;11.2;85.3
68873;BME280;55907;50.806;12.882;2023-08-08T02:08:24;971.9;;;11.2;85.1
68873;BME280;55907;50.806;12.882;2023-08-08T02:11:26;971.9;;;11.1;85.3
68873;BME280;55907;50.806;12.882;2023-08-08T02:14:27;971.8;;;11.1;85.3
68873;BME280;55907;50.806;12.882;2023-08-08T02:17:29;971.9;;;11.1;85.1
68873;BME280;55907;50.806;12.882;2023-08-08T02:20:30;971.9;;;11.1;85.1
68873;BME280;55907;50.806;12.882;2023-08-08T02:23:32;971.8;;;11.1;85.9
68873;BME280;55907;50.806;12.882;2023-08-08T02:26:33;971.9;;;11.1;85.2
68873;BME280;55907;50.806;12.882;2023-08-08T02:29:35;971.9;;;11.1;85.1
68873;BME280;55907;50.806;12.882;2023-08-08T02:32:36;971.9;;;11.1;85.2
68873;BME280;55907;50.806;12.882;2023-08-08T02:35:37;971.9;;;11.0;85.4
68873;BME280;55907;50.806;12.882;2023-08-08T02:38:39;971.9;;;11.0;85.1
68873;BME280;55907;50.806;12.882;2023-08-08T02:41:41;971.9;;;11.0;85.4
68873;BME280;55907;50.806;12.882;2023-08-08T02:44:42;971.9;;;10.9;85.5
68873;BME280;55907;50.806;12.882;2023-08-08T02:47:43;971.9;;;10.9;86.3
68873;BME280;55907;50.806;12.882;2023-08-08T02:50:45;971.9;;;10.9;85.6
68873;BME280;55907;50.806;12.882;2023-08-08T02:53:46;971.9;;;10.9;85.7
68873;BME280;55907;50.806;12.882;2023-08-08T02:56:48;971.9;;;10.9;85.6
68873;BME280;55907;50.806;12.882;2023-08-08T02:59:49;971.9;;;10.8;85.8
68873;BME280;55907;50.806;12.882;2023-08-08T03:02:51;971.9;;;10.8;86.0
68873;BME280;55907;50.806;12.882;2023-08-08T03:05:52;971.9;;;10.8;86.0
68873;BME280;55907;50.806;12.882;2023-08-08T03:08:54;971.8;;;10.8;86.0
68873;BME280;55907;50.806;12.882;2023-08-08T03:11:55;971.8;;;10.9;85.8
68873;BME280;55907;50.806;12.882;2023-08-08T03:14:57;971.8;;;10.9;85.7
68873;BME280;55907;50.806;12.882;2023-08-08T03:17:58;971.8;;;10.9;85.8
68873;BME280;55907;50.806;12.882;2023-08-08T03:21:00;971.8;;;10.9;86.2
68873;BME280;55907;50.806;12.882;2023-08-08T03:24:01;971.7;;;10.8;86.4
68873;BME280;55907;50.806;12.882;2023-08-08T03:27:03;971.7;;;10.8;86.8
68873;BME280;55907;50.806;12.882;2023-08-08T03:30:05;971.7;;;10.8;87.0
68873;BME280;55907;50.806;12.882;2023-08-08T03:33:06;971.7;;;10.9;86.6
68873;BME280;55907;50.806;12.882;2023-08-08T03:36:07;971.7;;;10.9;86.7
68873;BME280;55907;50.806;12.882;2023-08-08T03:39:08;971.6;;;10.9;87.2
68873;BME280;55907;50.806;12.882;2023-08-08T03:42:10;971.7;;;11.0;86.5
68873;BME280;55907;50.806;12.882;2023-08-08T03:45:12;971.7;;;11.0;86.8
68873;BME280;55907;50.806;12.882;2023-08-08T03:48:13;971.6;;;11.0;87.1
68873;BME280;55907;50.806;12.882;2023-08-08T03:51:14;971.5;;;11.0;87.4
68873;BME280;55907;50.806;12.882;2023-08-08T03:54:17;971.5;;;11.1;87.3
68873;BME280;55907;50.806;12.882;2023-08-08T03:57:18;971.5;;;11.1;86.8
68873;BME280;55907;50.806;12.882;2023-08-08T04:00:19;971.5;;;11.1;86.9
68873;BME280;55907;50.806;12.882;2023-08-08T04:03:20;971.4;;;11.2;86.6
68873;BME280;55907;50.806;12.882;2023-08-08T04:06:22;971.4;;;11.3;86.4
68873;BME280;55907;50.806;12.882;2023-08-08T04:09:23;971.4;;;11.4;86.4
68873;BME280;55907;50.806;12.882;2023-08-08T04:12:25;971.5;;;11.4;86.2
68873;BME280;55907;50.806;12.882;2023-08-08T04:15:26;971.5;;;11.5;86.4
68873;BME280;55907;50.806;12.882;2023-08-08T04:18:28;971.5;;;11.5;86.4
68873;BME280;55907;50.806;12.882;2023-08-08T04:21:29;971.5;;;11.6;86.6
68873;BME280;55907;50.806;12.882;2023-08-08T04:24:31;971.4;;;11.6;86.6
68873;BME280;55907;50.806;12.882;2023-08-08T04:27:32;971.4;;;11.6;86.7
68873;BME280;55907;50.806;12.882;2023-08-08T04:30:34;971.4;;;11.6;86.9
68873;BME280;55907;50.806;12.882;2023-08-08T04:33:35;971.4;;;11.6;87.0
68873;BME280;55907;50.806;12.882;2023-08-08T04:36:37;971.5;;;11.6;87.1
68873;BME280;55907;50.806;12.882;2023-08-08T04:39:38;971.5;;;11.6;86.7
68873;BME280;55907;50.806;12.882;2023-08-08T04:42:40;971.6;;;11.6;86.8
68873;BME280;55907;50.806;12.882;2023-08-08T04:45:41;971.6;;;11.7;86.5
68873;BME280;55907;50.806;12.882;2023-08-08T04:48:42;971.6;;;11.9;85.8
68873;BME280;55907;50.806;12.882;2023-08-08T04:51:44;971.6;;;12.2;84.5
68873;BME280;55907;50.806;12.882;2023-08-08T04:54:45;971.5;;;12.4;83.5
68873;BME280;55907;50.806;12.882;2023-08-08T04:57:47;971.5;;;12.5;82.9
68873;BME280;55907;50.806;12.882;2023-08-08T05:00:48;971.5;;;12.6;82.5
68873;BME280;55907;50.806;12.882;2023-08-08T05:03:50;971.5;;;12.6;82.3
68873;BME280;55907;50.806;12.882;2023-08-08T05:06:51;971.5;;;12.6;81.8
68873;BME280;55907;50.806;12.882;2023-08-08T05:09:53;971.6;;;12.6;82.1
68873;BME280;55907;50.806;12.882;2023-08-08T05:12:54;971.6;;;12.6;81.9
68873;BME280;55907;50.806;12.882;2023-08-08T05:15:56;971.5;;;12.7;82.2
68873;BME280;55907;50.806;12.882;2023-08-08T05:18:57;971.5;;;12.7;82.0
68873;BME280;55907;50.806;12.882;2023-08-08T05:21:59;971.5;;;12.6;81.6
68873;BME280;55907;50.806;12.882;2023-08-08T05:25:00;971.5;;;12.7;81.2
68873;BME280;55907;50.806;12.882;2023-08-08T05:28:02;971.5;;;12.7;80.9
68873;BME280;55907;50.806;12.882;2023-08-08T05:31:03;971.5;;;12.7;80.6
68873;BME280;55907;50.806;12.882;2023-08-08T05:34:04;971.5;;;12.7;80.4
68873;BME280;55907;50.806;12.882;2023-08-08T05:37:06;971.5;;;12.8;80.1
68873;BME280;55907;50.806;12.882;2023-08-08T05:40:08;971.5;;;12.8;79.5
68873;BME280;55907;50.806;12.882;2023-08-08T05:43:09;971.5;;;12.9;79.0
68873;BME280;55907;50.806;12.882;2023-08-08T05:46:10;971.6;;;12.9;78.4
68873;BME280;55907;50.806;12.882;2023-08-08T05:49:12;971.6;;;13.0;78.5
68873;BME280;55907;50.806;12.882;2023-08-08T05:52:13;971.7;;;13.1;78.3
68873;BME280;55907;50.806;12.882;2023-08-08T05:55:15;971.6;;;13.2;77.3
68873;BME280;55907;50.806;12.882;2023-08-08T05:58:16;971.7;;;13.2;77.3
68873;BME280;55907;50.806;12.882;2023-08-08T06:01:17;971.6;;;13.3;77.4
68873;BME280;55907;50.806;12.882;2023-08-08T06:04:19;971.6;;;13.3;77.2
68873;BME280;55907;50.806;12.882;2023-08-08T06:07:20;971.6;;;13.3;77.5
68873;BME280;55907;50.806;12.882;2023-08-08T06:10:22;971.6;;;13.3;77.6
68873;BME280;55907;50.806;12.882;2023-08-08T06:13:23;971.5;;;13.2;77.7
68873;BME280;55907;50.806;12.882;2023-08-08T06:16:25;971.5;;;13.3;77.4
68873;BME280;55907;50.806;12.882;2023-08-08T06:19:26;971.5;;;13.4;77.2
68873;BME280;55907;50.806;12.882;2023-08-08T06:22:28;971.5;;;13.4;76.6
68873;BME280;55907;50.806;12.882;2023-08-08T06:25:29;971.6;;;13.5;75.9
68873;BME280;55907;50.806;12.882;2023-08-08T06:28:31;971.6;;;13.6;75.7
68873;BME280;55907;50.806;12.882;2023-08-08T06:31:32;971.7;;;13.6;75.5
68873;BME280;55907;50.806;12.882;2023-08-08T06:34:33;971.8;;;13.9;75.7
68873;BME280;55907;50.806;12.882;2023-08-08T06:37:35;971.8;;;13.9;74.1
68873;BME280;55907;50.806;12.882;2023-08-08T06:40:36;971.7;;;14.0;73.6
68873;BME280;55907;50.806;12.882;2023-08-08T06:43:38;971.8;;;14.0;73.9
68873;BME280;55907;50.806;12.882;2023-08-08T06:46:39;971.8;;;14.0;74.9
68873;BME280;55907;50.806;12.882;2023-08-08T06:49:41;971.7;;;13.9;75.8
68873;BME280;55907;50.806;12.882;2023-08-08T06:52:42;971.6;;;13.8;77.5
68873;BME280;55907;50.806;12.882;2023-08-08T06:55:44;971.8;;;13.4;79.5
68873;BME280;55907;50.806;12.882;2023-08-08T06:58:45;971.7;;;13.4;80.1
68873;BME280;55907;50.806;12.882;2023-08-08T07:01:46;971.7;;;13.3;81.2
68873;BME280;55907;50.806;12.882;2023-08-08T07:04:48;971.8;;;13.3;81.4
68873;BME280;55907;50.806;12.882;2023-08-08T07:07:50;971.8;;;13.3;81.3
68873;BME280;55907;50.806;12.882;2023-08-08T07:10:51;971.7;;;13.3;81.8
68873;BME280;55907;50.806;12.882;2023-08-08T07:13:52;971.8;;;13.3;81.6
68873;BME280;55907;50.806;12.882;2023-08-08T07:16:54;971.7;;;13.3;81.6
68873;BME280;55907;50.806;12.882;2023-08-08T07:19:55;971.7;;;13.3;81.3
68873;BME280;55907;50.806;12.882;2023-08-08T07:22:57;971.8;;;13.3;81.0
68873;BME280;55907;50.806;12.882;2023-08-08T07:25:58;971.7;;;13.3;81.4
68873;BME280;55907;50.806;12.882;2023-08-08T07:29:00;971.7;;;13.3;81.8
68873;BME280;55907;50.806;12.882;2023-08-08T07:32:03;971.7;;;13.2;82.1
68873;BME280;55907;50.806;12.882;2023-08-08T07:35:03;971.5;;;13.2;82.2
68873;BME280;55907;50.806;12.882;2023-08-08T07:38:04;971.4;;;13.2;81.3
68873;BME280;55907;50.806;12.882;2023-08-08T07:41:06;971.4;;;13.3;81.1
68873;BME280;55907;50.806;12.882;2023-08-08T07:44:07;971.5;;;13.3;80.8
68873;BME280;55907;50.806;12.882;2023-08-08T07:47:08;971.5;;;13.4;80.8
68873;BME280;55907;50.806;12.882;2023-08-08T07:50:10;971.5;;;13.5;80.6
68873;BME280;55907;50.806;12.882;2023-08-08T07:53:11;971.6;;;13.6;80.3
68873;BME280;55907;50.806;12.882;2023-08-08T07:56:13;971.6;;;13.8;79.7
68873;BME280;55907;50.806;12.882;2023-08-08T07:59:14;971.6;;;14.0;79.0
68873;BME280;55907;50.806;12.882;2023-08-08T08:02:16;971.6;;;14.1;77.0
68873;BME280;55907;50.806;12.882;2023-08-08T08:05:17;971.6;;;14.6;75.6
68873;BME280;55907;50.806;12.882;2023-08-08T08:08:19;971.7;;;15.2;74.1
68873;BME280;55907;50.806;12.882;2023-08-08T08:11:20;971.7;;;15.9;72.5
68873;BME280;55907;50.806;12.882;2023-08-08T08:14:21;971.7;;;16.4;69.2
68873;BME280;55907;50.806;12.882;2023-08-08T08:17:23;971.7;;;16.4;67.3
68873;BME280;55907;50.806;12.882;2023-08-08T08:20:24;971.8;;;16.4;67.3
68873;BME280;55907;50.806;12.882;2023-08-08T08:23:26;971.8;;;16.3;67.0
68873;BME280;55907;50.806;12.882;2023-08-08T08:26:27;971.7;;;16.1;67.6
68873;BME280;55907;50.806;12.882;2023-08-08T08:29:29;971.8;;;16.1;67.9
68873;BME280;55907;50.806;12.882;2023-08-08T08:32:31;971.8;;;16.1;67.9
68873;BME280;55907;50.806;12.882;2023-08-08T08:35:31;971.8;;;16.2;67.5
68873;BME280;55907;50.806;12.882;2023-08-08T08:38:33;971.7;;;16.5;65.9
68873;BME280;55907;50.806;12.882;2023-08-08T08:41:35;971.7;;;16.9;64.7
68873;BME280;55907;50.806;12.882;2023-08-08T08:44:36;971.7;;;17.2;64.2
68873;BME280;55907;50.806;12.882;2023-08-08T08:47:40;971.6;;;17.3;63.0
68873;BME280;55907;50.806;12.882;2023-08-08T08:50:38;971.6;;;17.5;62.8
68873;BME280;55907;50.806;12.882;2023-08-08T08:53:40;971.6;;;17.5;60.1
68873;BME280;55907;50.806;12.882;2023-08-08T08:56:42;971.6;;;17.7;61.3
68873;BME280;55907;50.806;12.882;2023-08-08T08:59:43;971.6;;;18.1;60.0
68873;BME280;55907;50.806;12.882;2023-08-08T09:02:44;971.6;;;18.5;61.2
68873;BME280;55907;50.806;12.882;2023-08-08T09:05:46;971.6;;;18.8;60.6
68873;BME280;55907;50.806;12.882;2023-08-08T09:08:47;971.7;;;18.9;57.6
68873;BME280;55907;50.806;12.882;2023-08-08T09:11:50;971.7;;;19.0;57.7
68873;BME280;55907;50.806;12.882;2023-08-08T09:14:54;971.7;;;19.1;57.7
68873;BME280;55907;50.806;12.882;2023-08-08T09:17:52;971.6;;;19.1;56.4
68873;BME280;55907;50.806;12.882;2023-08-08T09:20:52;971.6;;;19.0;55.3
68873;BME280;55907;50.806;12.882;2023-08-08T09:23:54;971.6;;;19.1;54.4
68873;BME280;55907;50.806;12.882;2023-08-08T09:26:55;971.6;;;18.8;55.7
68873;BME280;55907;50.806;12.882;2023-08-08T09:29:56;971.6;;;19.1;56.6
68873;BME280;55907;50.806;12.882;2023-08-08T09:32:58;971.6;;;19.5;53.9
68873;BME280;55907;50.806;12.882;2023-08-08T09:35:59;971.5;;;20.0;52.9
68873;BME280;55907;50.806;12.882;2023-08-08T09:39:01;971.5;;;20.2;53.2
68873;BME280;55907;50.806;12.882;2023-08-08T09:42:03;971.5;;;20.1;50.6
68873;BME280;55907;50.806;12.882;2023-08-08T09:45:04;971.6;;;19.6;52.4
68873;BME280;55907;50.806;12.882;2023-08-08T09:48:05;971.5;;;19.0;52.3
68873;BME280;55907;50.806;12.882;2023-08-08T09:51:07;971.5;;;18.7;54.2
68873;BME280;55907;50.806;12.882;2023-08-08T09:54:08;971.6;;;18.5;54.5
68873;BME280;55907;50.806;12.882;2023-08-08T09:57:09;971.5;;;18.3;55.3
68873;BME280;55907;50.806;12.882;2023-08-08T10:00:10;971.4;;;18.4;56.3
68873;BME280;55907;50.806;12.882;2023-08-08T10:03:12;971.5;;;18.2;55.5
68873;BME280;55907;50.806;12.882;2023-08-08T10:06:13;971.4;;;18.0;55.2
68873;BME280;55907;50.806;12.882;2023-08-08T10:09:15;971.4;;;18.2;55.6
68873;BME280;55907;50.806;12.882;2023-08-08T10:12:16;971.4;;;18.5;54.5
68873;BME280;55907;50.806;12.882;2023-08-08T10:15:17;971.5;;;18.4;54.3
68873;BME280;55907;50.806;12.882;2023-08-08T10:18:21;971.4;;;18.4;55.3
68873;BME280;55907;50.806;12.882;2023-08-08T10:21:20;971.4;;;18.3;54.7
68873;BME280;55907;50.806;12.882;2023-08-08T10:24:21;971.4;;;18.0;55.6
68873;BME280;55907;50.806;12.882;2023-08-08T10:27:32;971.4;;;17.7;56.7
68873;BME280;55907;50.806;12.882;2023-08-08T10:30:24;971.4;;;17.4;57.8
68873;BME280;55907;50.806;12.882;2023-08-08T10:33:27;971.3;;;17.6;58.2
68873;BME280;55907;50.806;12.882;2023-08-08T10:36:48;971.3;;;17.9;58.0
68873;BME280;55907;50.806;12.882;2023-08-08T10:39:29;971.3;;;18.3;56.7
68873;BME280;55907;50.806;12.882;2023-08-08T10:42:30;971.3;;;18.6;56.0
68873;BME280;55907;50.806;12.882;2023-08-08T10:45:31;971.2;;;19.0;54.0
68873;BME280;55907;50.806;12.882;2023-08-08T10:48:33;971.2;;;19.1;53.7
68873;BME280;55907;50.806;12.882;2023-08-08T10:51:36;971.1;;;19.4;53.7
68873;BME280;55907;50.806;12.882;2023-08-08T10:54:36;971.0;;;19.7;52.2
68873;BME280;55907;50.806;12.882;2023-08-08T10:57:37;971.0;;;20.1;50.2
68873;BME280;55907;50.806;12.882;2023-08-08T11:00:39;970.9;;;20.4;48.2
68873;BME280;55907;50.806;12.882;2023-08-08T11:03:40;970.9;;;20.4;46.6
68873;BME280;55907;50.806;12.882;2023-08-08T11:06:41;970.8;;;20.6;46.3
68873;BME280;55907;50.806;12.882;2023-08-08T11:09:42;970.8;;;20.5;47.0
68873;BME280;55907;50.806;12.882;2023-08-08T11:12:53;970.7;;;20.7;47.0
68873;BME280;55907;50.806;12.882;2023-08-08T11:15:45;970.7;;;21.1;45.8
68873;BME280;55907;50.806;12.882;2023-08-08T11:18:47;970.6;;;21.2;44.8
68873;BME280;55907;50.806;12.882;2023-08-08T11:21:48;970.6;;;21.1;43.9
68873;BME280;55907;50.806;12.882;2023-08-08T11:24:49;970.7;;;21.4;44.1
68873;BME280;55907;50.806;12.882;2023-08-08T11:27:51;970.6;;;21.7;43.4
68873;BME280;55907;50.806;12.882;2023-08-08T11:30:52;970.6;;;21.8;43.4
68873;BME280;55907;50.806;12.882;2023-08-08T11:33:53;970.5;;;21.9;43.8
68873;BME280;55907;50.806;12.882;2023-08-08T11:36:54;970.4;;;22.1;42.7
68873;BME280;55907;50.806;12.882;2023-08-08T11:39:56;970.4;;;21.9;42.4
68873;BME280;55907;50.806;12.882;2023-08-08T11:42:58;970.5;;;21.5;43.5
68873;BME280;55907;50.806;12.882;2023-08-08T11:46:00;970.4;;;21.0;44.4
68873;BME280;55907;50.806;12.882;2023-08-08T11:49:04;970.5;;;20.6;45.3
68873;BME280;55907;50.806;12.882;2023-08-08T11:52:01;970.6;;;20.2;46.5
68873;BME280;55907;50.806;12.882;2023-08-08T11:55:05;970.5;;;19.8;48.4
68873;BME280;55907;50.806;12.882;2023-08-08T11:58:04;970.5;;;19.6;49.4
68873;BME280;55907;50.806;12.882;2023-08-08T12:01:05;970.5;;;19.9;49.6
68873;BME280;55907;50.806;12.882;2023-08-08T12:04:08;970.5;;;20.5;48.7
68873;BME280;55907;50.806;12.882;2023-08-08T12:07:09;970.4;;;20.9;45.8
68873;BME280;55907;50.806;12.882;2023-08-08T12:10:14;970.4;;;21.0;44.7
68873;BME280;55907;50.806;12.882;2023-08-08T12:13:11;970.3;;;21.0;44.6
68873;BME280;55907;50.806;12.882;2023-08-08T12:16:14;970.4;;;20.9;44.7
68873;BME280;55907;50.806;12.882;2023-08-08T12:19:14;970.4;;;20.8;44.1
68873;BME280;55907;50.806;12.882;2023-08-08T12:22:15;970.4;;;20.5;43.9
68873;BME280;55907;50.806;12.882;2023-08-08T12:25:16;970.3;;;20.5;44.0
68873;BME280;55907;50.806;12.882;2023-08-08T12:28:18;970.2;;;20.7;43.7
68873;BME280;55907;50.806;12.882;2023-08-08T12:31:19;970.2;;;21.2;42.6
68873;BME280;55907;50.806;12.882;2023-08-08T12:34:20;970.2;;;21.2;43.0
68873;BME280;55907;50.806;12.882;2023-08-08T12:37:22;970.2;;;21.0;43.3
68873;BME280;55907;50.806;12.882;2023-08-08T12:40:23;970.2;;;21.0;43.6
68873;BME280;55907;50.806;12.882;2023-08-08T12:43:24;970.1;;;20.8;42.6
68873;BME280;55907;50.806;12.882;2023-08-08T12:46:26;970.1;;;20.9;42.8
68873;BME280;55907;50.806;12.882;2023-08-08T12:49:27;970.3;;;20.8;43.6
68873;BME280;55907;50.806;12.882;2023-08-08T12:52:29;970.2;;;20.4;44.1
68873;BME280;55907;50.806;12.882;2023-08-08T12:55:30;970.2;;;20.2;45.1
68873;BME280;55907;50.806;12.882;2023-08-08T12:58:31;970.1;;;20.4;44.9
68873;BME280;55907;50.806;12.882;2023-08-08T13:01:33;970.1;;;20.6;44.2
68873;BME280;55907;50.806;12.882;2023-08-08T13:04:34;970.3;;;20.4;44.4
68873;BME280;55907;50.806;12.882;2023-08-08T13:07:35;970.2;;;20.3;45.6
68873;BME280;55907;50.806;12.882;2023-08-08T13:10:37;970.2;;;20.5;45.2
68873;BME280;55907;50.806;12.882;2023-08-08T13:13:38;970.1;;;20.8;44.9
68873;BME280;55907;50.806;12.882;2023-08-08T13:16:40;970.1;;;21.0;43.0
68873;BME280;55907;50.806;12.882;2023-08-08T13:19:41;970.0;;;21.5;42.5
68873;BME280;55907;50.806;12.882;2023-08-08T13:22:42;970.1;;;21.9;40.5
68873;BME280;55907;50.806;12.882;2023-08-08T13:25:44;970.1;;;22.3;40.6
68873;BME280;55907;50.806;12.882;2023-08-08T13:28:45;970.1;;;22.6;40.0
68873;BME280;55907;50.806;12.882;2023-08-08T13:31:47;970.1;;;22.6;39.7
68873;BME280;55907;50.806;12.882;2023-08-08T13:34:48;970.2;;;22.1;38.9
68873;BME280;55907;50.806;12.882;2023-08-08T13:37:49;970.1;;;21.6;39.8
68873;BME280;55907;50.806;12.882;2023-08-08T13:40:50;970.1;;;21.2;40.3
68873;BME280;55907;50.806;12.882;2023-08-08T13:43:52;970.2;;;21.1;40.6
68873;BME280;55907;50.806;12.882;2023-08-08T13:46:53;970.0;;;21.4;40.5
68873;BME280;55907;50.806;12.882;2023-08-08T13:49:55;970.1;;;21.8;40.8
68873;BME280;55907;50.806;12.882;2023-08-08T13:52:56;970.1;;;21.7;40.4
68873;BME280;55907;50.806;12.882;2023-08-08T13:55:57;970.0;;;21.4;40.0
68873;BME280;55907;50.806;12.882;2023-08-08T13:58:59;970.1;;;21.2;40.6
68873;BME280;55907;50.806;12.882;2023-08-08T14:02:00;970.4;;;21.0;41.3
68873;BME280;55907;50.806;12.882;2023-08-08T14:05:02;970.0;;;20.8;42.2
68873;BME280;55907;50.806;12.882;2023-08-08T14:08:03;970.2;;;20.4;42.7
68873;BME280;55907;50.806;12.882;2023-08-08T14:11:04;970.2;;;20.1;43.2
68873;BME280;55907;50.806;12.882;2023-08-08T14:14:06;970.2;;;19.9;43.3
68873;BME280;55907;50.806;12.882;2023-08-08T14:17:07;970.2;;;20.2;43.3
68873;BME280;55907;50.806;12.882;2023-08-08T14:20:09;970.2;;;20.6;43.4
68873;BME280;55907;50.806;12.882;2023-08-08T14:23:10;970.3;;;20.8;42.4
68873;BME280;55907;50.806;12.882;2023-08-08T14:26:11;970.3;;;20.9;42.4
68873;BME280;55907;50.806;12.882;2023-08-08T14:29:13;970.3;;;20.7;41.2
68873;BME280;55907;50.806;12.882;2023-08-08T14:32:14;970.4;;;20.7;41.9
68873;BME280;55907;50.806;12.882;2023-08-08T14:35:15;970.4;;;20.4;42.2
68873;BME280;55907;50.806;12.882;2023-08-08T14:38:17;970.4;;;20.2;42.8
68873;BME280;55907;50.806;12.882;2023-08-08T14:41:18;970.4;;;20.1;43.2
68873;BME280;55907;50.806;12.882;2023-08-08T14:44:19;970.4;;;20.1;44.0
68873;BME280;55907;50.806;12.882;2023-08-08T14:47:21;970.5;;;20.1;44.6
68873;BME280;55907;50.806;12.882;2023-08-08T14:50:22;970.5;;;20.0;43.6
68873;BME280;55907;50.806;12.882;2023-08-08T14:53:23;970.5;;;19.8;43.7
68873;BME280;55907;50.806;12.882;2023-08-08T14:56:25;970.6;;;19.6;44.4
68873;BME280;55907;50.806;12.882;2023-08-08T14:59:27;970.6;;;19.5;44.8
68873;BME280;55907;50.806;12.882;2023-08-08T15:02:28;970.6;;;19.3;45.3
68873;BME280;55907;50.806;12.882;2023-08-08T15:05:29;970.7;;;19.3;45.7
68873;BME280;55907;50.806;12.882;2023-08-08T15:08:30;970.6;;;19.3;45.5
68873;BME280;55907;50.806;12.882;2023-08-08T15:11:32;970.7;;;19.2;46.2
68873;BME280;55907;50.806;12.882;2023-08-08T15:14:34;970.8;;;19.1;46.9
68873;BME280;55907;50.806;12.882;2023-08-08T15:17:35;971.1;;;18.9;49.0
68873;BME280;55907;50.806;12.882;2023-08-08T15:20:36;971.0;;;18.5;53.4
68873;BME280;55907;50.806;12.882;2023-08-08T15:23:39;970.9;;;18.1;54.9
68873;BME280;55907;50.806;12.882;2023-08-08T15:26:39;970.9;;;17.8;57.3
68873;BME280;55907;50.806;12.882;2023-08-08T15:29:40;970.9;;;17.7;57.7
68873;BME280;55907;50.806;12.882;2023-08-08T15:32:42;970.9;;;17.6;56.8
68873;BME280;55907;50.806;12.882;2023-08-08T15:35:43;970.9;;;17.5;57.6
68873;BME280;55907;50.806;12.882;2023-08-08T15:38:44;971.1;;;17.4;57.8
68873;BME280;55907;50.806;12.882;2023-08-08T15:41:46;971.2;;;17.3;60.0
68873;BME280;55907;50.806;12.882;2023-08-08T15:44:47;971.5;;;16.9;65.5
68873;BME280;55907;50.806;12.882;2023-08-08T15:47:49;971.6;;;16.3;68.3
68873;BME280;55907;50.806;12.882;2023-08-08T15:50:50;971.6;;;15.8;72.3
68873;BME280;55907;50.806;12.882;2023-08-08T15:53:52;971.6;;;15.5;74.0
68873;BME280;55907;50.806;12.882;2023-08-08T15:56:53;971.6;;;15.4;74.7
68873;BME280;55907;50.806;12.882;2023-08-08T15:59:54;971.6;;;15.2;77.3
68873;BME280;55907;50.806;12.882;2023-08-08T16:02:56;971.6;;;15.2;78.4
68873;BME280;55907;50.806;12.882;2023-08-08T16:05:57;971.6;;;15.0;79.9
68873;BME280;55907;50.806;12.882;2023-08-08T16:08:59;971.6;;;14.9;80.1
68873;BME280;55907;50.806;12.882;2023-08-08T16:12:00;971.6;;;15.0;80.6
68873;BME280;55907;50.806;12.882;2023-08-08T16:15:02;971.6;;;14.8;81.7
68873;BME280;55907;50.806;12.882;2023-08-08T16:18:03;971.5;;;14.7;84.1
68873;BME280;55907;50.806;12.882;2023-08-08T16:21:04;971.5;;;14.7;81.9
68873;BME280;55907;50.806;12.882;2023-08-08T16:24:06;971.6;;;14.6;83.5
68873;BME280;55907;50.806;12.882;2023-08-08T16:27:07;971.6;;;14.6;84.7
68873;BME280;55907;50.806;12.882;2023-08-08T16:30:09;971.6;;;14.7;83.8
68873;BME280;55907;50.806;12.882;2023-08-08T16:33:10;971.7;;;14.8;84.0
68873;BME280;55907;50.806;12.882;2023-08-08T16:36:12;971.7;;;14.8;85.7
68873;BME280;55907;50.806;12.882;2023-08-08T16:39:14;971.7;;;14.8;85.2
68873;BME280;55907;50.806;12.882;2023-08-08T16:42:15;971.7;;;14.9;85.6
68873;BME280;55907;50.806;12.882;2023-08-08T16:45:16;971.7;;;14.9;85.4
68873;BME280;55907;50.806;12.882;2023-08-08T16:48:17;971.6;;;14.8;85.8
68873;BME280;55907;50.806;12.882;2023-08-08T16:51:19;971.5;;;14.7;86.4
68873;BME280;55907;50.806;12.882;2023-08-08T16:54:20;971.5;;;14.6;85.5